Terminal Aerodrome Forecast
Issued by NWS Shreveport, LA

Home | Current Version | Previous Version | Text Only | Print | Product List | Glossary On
Versions: 1 2 3 4 5 6 7 8 9 10 11 12
000
FTUS44 KSHV 302300
TAFGGG
TAF
KGGG 302337Z 3100/3124 06006KT P6SM BKN250
     FM310700 09005KT P6SM BKN100 OVC150
     FM311500 11008KT P6SM SCT050 OVC150
     FM312200 11008KT P6SM BKN050 OVC100=

USA.gov is the U.S. government's official web portal to all federal, state and local government web resources and services.